createdAt,value
2019-03-31T00:01:25.245Z,17.92
2019-03-31T00:03:53.894Z,18.92
2019-03-31T00:06:24.649Z,14.33
2019-03-31T00:08:53.250Z,16.60
2019-03-31T00:11:21.882Z,15.32
2019-03-31T00:13:50.573Z,16.35
2019-03-31T00:16:19.377Z,15.23
2019-03-31T00:18:47.943Z,12.23
2019-03-31T00:21:16.624Z,14.25
2019-03-31T00:23:45.266Z,14.33
2019-03-31T00:26:14.118Z,12.78
2019-03-31T00:28:42.729Z,14.50
2019-03-31T00:31:21.413Z,14.18
2019-03-31T00:33:41.748Z,14.05
2019-03-31T00:36:10.433Z,16.85
2019-03-31T00:38:39.013Z,13.85
2019-03-31T00:41:07.666Z,15.70
2019-03-31T00:43:37.878Z,15.53
2019-03-31T00:46:06.630Z,15.10
2019-03-31T00:48:35.280Z,17.10
2019-03-31T00:51:04.091Z,13.45
2019-03-31T00:53:32.671Z,14.98
2019-03-31T00:56:01.577Z,14.58
2019-03-31T00:58:30.573Z,13.85
2019-03-31T01:01:03.448Z,15.25
2019-03-31T01:03:33.720Z,15.03
2019-03-31T01:06:02.409Z,19.27
2019-03-31T01:08:34.020Z,17.35
2019-03-31T01:11:05.391Z,15.90
2019-03-31T01:13:34.655Z,13.70
2019-03-31T01:16:04.705Z,15.32
2019-03-31T01:18:34.124Z,15.68
2019-03-31T01:21:02.778Z,19.42
2019-03-31T01:23:31.460Z,19.02
2019-03-31T01:26:00.603Z,17.23
2019-03-31T01:28:29.584Z,14.78
2019-03-31T01:30:59.089Z,16.17
2019-03-31T01:33:27.879Z,15.08
2019-03-31T01:35:56.521Z,14.35
2019-03-31T01:38:25.356Z,17.92
2019-03-31T01:40:54.034Z,14.75
2019-03-31T01:43:22.685Z,16.65
2019-03-31T01:45:51.460Z,17.70
2019-03-31T01:48:20.147Z,16.32
2019-03-31T01:50:48.801Z,16.87
2019-03-31T01:53:18.531Z,15.88
2019-03-31T01:55:47.324Z,14.98
2019-03-31T01:58:15.914Z,17.57
2019-03-31T02:00:46.199Z,13.83
2019-03-31T02:03:14.894Z,16.77
2019-03-31T02:05:43.719Z,17.32
2019-03-31T02:08:12.431Z,16.20
2019-03-31T02:10:41.111Z,17.57
2019-03-31T02:13:09.762Z,16.73
2019-03-31T02:15:38.676Z,15.20
2019-03-31T02:18:07.582Z,14.85
2019-03-31T02:20:37.191Z,16.70
2019-03-31T02:23:05.844Z,17.05
2019-03-31T02:25:34.540Z,17.37
2019-03-31T02:28:03.195Z,15.80
2019-03-31T02:30:31.834Z,16.00
2019-03-31T02:33:00.516Z,19.50
2019-03-31T02:35:29.181Z,14.03
2019-03-31T02:37:57.892Z,15.23
2019-03-31T02:40:26.578Z,15.03
2019-03-31T02:42:55.164Z,20.68
2019-03-31T02:45:24.133Z,14.98
2019-03-31T02:47:54.333Z,16.70
2019-03-31T02:50:41.041Z,15.95
2019-03-31T02:53:09.930Z,14.43
2019-03-31T02:55:39.225Z,15.40
2019-03-31T02:58:09.147Z,19.25
2019-03-31T03:00:38.425Z,15.35
2019-03-31T03:03:07.879Z,15.63
2019-03-31T03:05:38.658Z,14.58
2019-03-31T03:08:10.272Z,13.70
2019-03-31T03:10:39.800Z,18.32
2019-03-31T03:13:10.216Z,14.03
2019-03-31T03:15:56.825Z,15.93
2019-03-31T03:18:25.467Z,16.52
2019-03-31T03:20:54.039Z,15.98
2019-03-31T03:23:22.712Z,17.52
2019-03-31T03:25:56.255Z,16.97
2019-03-31T03:28:21.612Z,17.73
2019-03-31T03:30:52.259Z,19.80
2019-03-31T03:33:21.091Z,19.02
2019-03-31T03:35:50.008Z,20.32
2019-03-31T03:38:18.684Z,14.63
2019-03-31T03:40:47.320Z,18.30
2019-03-31T03:43:15.832Z,16.00
2019-03-31T03:45:45.718Z,17.25
2019-03-31T03:48:14.350Z,14.63
2019-03-31T03:50:42.998Z,16.32
2019-03-31T03:53:11.625Z,16.27
2019-03-31T03:55:40.274Z,19.12
2019-03-31T03:58:08.922Z,18.95
2019-03-31T04:00:37.651Z,16.73
2019-03-31T04:03:06.395Z,20.37
2019-03-31T04:05:35.065Z,19.60
2019-03-31T04:08:03.636Z,15.95
2019-03-31T04:10:47.554Z,18.25
2019-03-31T04:13:16.177Z,15.60
2019-03-31T04:15:44.889Z,21.85
2019-03-31T04:18:13.612Z,16.27
2019-03-31T04:20:42.198Z,16.05
2019-03-31T04:23:10.845Z,15.32
2019-03-31T04:25:39.933Z,13.35
2019-03-31T04:28:08.656Z,17.75
2019-03-31T04:30:37.177Z,15.20
2019-03-31T04:33:05.855Z,14.35
2019-03-31T04:35:34.588Z,18.27
2019-03-31T04:38:03.241Z,21.73
2019-03-31T04:40:31.826Z,19.48
2019-03-31T04:43:02.494Z,18.02
2019-03-31T04:45:31.180Z,18.37
2019-03-31T04:47:59.875Z,21.93
2019-03-31T04:50:28.521Z,21.57
2019-03-31T04:52:57.164Z,17.05
2019-03-31T04:55:25.777Z,19.75
2019-03-31T04:57:54.429Z,17.25
2019-03-31T05:00:23.070Z,20.10
2019-03-31T05:02:51.897Z,19.05
2019-03-31T05:05:20.749Z,22.35
2019-03-31T05:07:49.403Z,21.23
2019-03-31T05:10:18.238Z,22.37
2019-03-31T05:12:46.812Z,22.07
2019-03-31T05:15:15.452Z,17.77
2019-03-31T05:17:44.301Z,18.27
2019-03-31T05:20:12.938Z,16.75
2019-03-31T05:22:41.585Z,18.40
2019-03-31T05:25:10.363Z,20.40
2019-03-31T05:27:39.038Z,19.02
2019-03-31T05:30:07.989Z,22.87
2019-03-31T05:32:37.027Z,24.70
2019-03-31T05:35:06.583Z,114.00
2019-03-31T05:37:49.905Z,33.45
2019-03-31T05:40:05.949Z,29.95
2019-03-31T05:42:34.589Z,34.23
2019-03-31T05:45:03.301Z,28.65
2019-03-31T05:47:32.163Z,28.80
2019-03-31T05:50:00.807Z,30.23
2019-03-31T05:52:29.397Z,33.00
2019-03-31T05:54:58.394Z,33.23
2019-03-31T05:57:27.049Z,30.27
2019-03-31T06:00:08.206Z,30.10
2019-03-31T06:02:38.458Z,34.38
2019-03-31T06:05:07.824Z,33.95
2019-03-31T06:07:36.499Z,31.97
2019-03-31T06:10:06.842Z,36.33
2019-03-31T06:12:35.563Z,39.70
2019-03-31T06:15:04.731Z,39.48
2019-03-31T06:17:33.377Z,41.48
2019-03-31T06:20:03.006Z,27.65
2019-03-31T06:22:31.687Z,41.37
2019-03-31T06:25:00.362Z,34.55
2019-03-31T06:27:29.188Z,34.65
2019-03-31T06:29:58.422Z,34.53
2019-03-31T06:32:27.280Z,34.23
2019-03-31T06:34:55.954Z,28.85
2019-03-31T06:37:24.624Z,32.85
2019-03-31T06:39:53.214Z,26.45
2019-03-31T06:42:21.859Z,26.80
2019-03-31T06:44:50.559Z,24.87
2019-03-31T06:47:19.408Z,23.55
2019-03-31T06:49:48.085Z,26.50
2019-03-31T06:52:16.700Z,27.22
2019-03-31T06:54:45.345Z,26.75
2019-03-31T06:57:14.004Z,27.05
2019-03-31T06:59:42.789Z,26.87
2019-03-31T07:02:11.560Z,30.20
2019-03-31T07:04:40.058Z,26.70
2019-03-31T07:07:08.867Z,27.27
2019-03-31T07:09:37.580Z,26.52
2019-03-31T07:12:06.216Z,28.85
2019-03-31T07:14:37.831Z,29.35
2019-03-31T07:17:06.652Z,26.35
2019-03-31T07:19:35.343Z,30.60
2019-03-31T07:22:04.056Z,26.55
2019-03-31T07:24:32.714Z,23.52
2019-03-31T07:27:01.297Z,28.52
2019-03-31T07:29:29.919Z,30.37
2019-03-31T07:31:59.273Z,29.32
2019-03-31T07:34:28.010Z,23.67
2019-03-31T07:36:56.645Z,26.23
2019-03-31T07:39:25.241Z,25.92
2019-03-31T07:41:54.095Z,26.33
2019-03-31T07:44:24.236Z,23.85
2019-03-31T07:46:52.889Z,27.00
2019-03-31T07:49:21.477Z,25.43
2019-03-31T07:51:50.142Z,26.75
2019-03-31T07:54:18.845Z,26.00
2019-03-31T07:56:47.567Z,33.67
2019-03-31T07:59:17.694Z,29.27
2019-03-31T08:01:46.402Z,21.95
2019-03-31T08:04:15.057Z,24.02
2019-03-31T08:06:43.824Z,26.25
2019-03-31T08:09:13.673Z,22.22
2019-03-31T08:11:43.838Z,20.52
2019-03-31T08:14:12.638Z,21.27
2019-03-31T08:16:41.304Z,21.20
2019-03-31T08:19:10.049Z,23.55
2019-03-31T08:21:38.742Z,20.17
2019-03-31T08:24:07.329Z,18.57
2019-03-31T08:26:36.017Z,17.95
2019-03-31T08:29:04.728Z,18.12
2019-03-31T08:31:33.395Z,19.82
2019-03-31T08:34:01.985Z,19.77
2019-03-31T08:36:35.715Z,15.48
2019-03-31T08:39:08.330Z,15.30
2019-03-31T08:41:36.908Z,12.65
2019-03-31T08:44:05.606Z,13.00
2019-03-31T08:46:34.182Z,16.37
2019-03-31T08:49:02.919Z,21.65
2019-03-31T08:51:31.608Z,13.88
2019-03-31T08:54:00.257Z,11.50
2019-03-31T08:56:28.770Z,11.43
2019-03-31T08:58:57.992Z,13.62
2019-03-31T09:01:26.700Z,13.05
2019-03-31T09:03:55.342Z,11.70
2019-03-31T09:06:24.289Z,11.97
2019-03-31T09:08:52.937Z,11.60
2019-03-31T09:11:21.580Z,8.93
2019-03-31T09:13:50.738Z,12.25
2019-03-31T09:16:20.414Z,11.80
2019-03-31T09:18:48.988Z,12.95
2019-03-31T09:21:18.129Z,9.50
2019-03-31T09:23:46.714Z,9.85
2019-03-31T09:26:15.354Z,16.02
2019-03-31T09:28:44.044Z,11.28
2019-03-31T09:31:12.794Z,10.13
2019-03-31T09:33:41.380Z,14.55
2019-03-31T09:36:16.549Z,16.75
2019-03-31T09:38:45.682Z,10.50
2019-03-31T09:41:14.577Z,11.15
2019-03-31T09:43:43.229Z,10.90
2019-03-31T09:46:16.048Z,12.20
2019-03-31T09:48:44.922Z,14.00
2019-03-31T09:51:13.591Z,17.32
2019-03-31T09:53:42.229Z,12.25
2019-03-31T09:56:10.990Z,11.68
2019-03-31T09:58:39.655Z,10.70
2019-03-31T10:01:08.344Z,13.30
2019-03-31T10:03:37.019Z,20.17
2019-03-31T10:06:10.948Z,10.80
2019-03-31T10:08:36.044Z,24.52
2019-03-31T10:11:05.419Z,10.35
2019-03-31T10:13:36.297Z,10.88
2019-03-31T10:16:04.773Z,10.18
2019-03-31T10:18:33.408Z,10.35
2019-03-31T10:21:02.047Z,10.98
2019-03-31T10:23:30.707Z,12.03
2019-03-31T10:25:59.326Z,13.72
2019-03-31T10:28:32.282Z,10.10
2019-03-31T10:31:01.327Z,12.53
2019-03-31T10:33:30.519Z,13.80
2019-03-31T10:35:59.122Z,12.07
2019-03-31T10:38:27.797Z,12.43
2019-03-31T10:40:58.159Z,9.93
2019-03-31T10:43:26.839Z,10.03
2019-03-31T10:45:55.382Z,11.80
2019-03-31T10:48:24.117Z,12.82
2019-03-31T10:50:52.766Z,9.90
2019-03-31T10:53:26.073Z,13.22
2019-03-31T10:55:54.716Z,11.12
2019-03-31T10:58:23.456Z,20.10
2019-03-31T11:00:52.110Z,13.53
2019-03-31T11:03:20.812Z,9.18
2019-03-31T11:05:51.153Z,10.63
2019-03-31T11:08:19.968Z,9.25
2019-03-31T11:10:48.759Z,33.05
2019-03-31T11:13:17.438Z,10.68
2019-03-31T11:15:46.054Z,11.73
2019-03-31T11:18:14.754Z,13.98
2019-03-31T11:20:43.441Z,10.75
2019-03-31T11:23:20.553Z,8.43
2019-03-31T11:25:49.204Z,8.38
2019-03-31T11:28:19.906Z,10.65
2019-03-31T11:30:48.298Z,8.40
2019-03-31T11:33:17.016Z,7.05
2019-03-31T11:35:45.652Z,9.95
2019-03-31T11:38:14.485Z,11.33
2019-03-31T11:40:43.123Z,7.00
2019-03-31T11:43:14.284Z,9.85
2019-03-31T11:45:42.972Z,10.23
2019-03-31T11:48:12.549Z,8.23
2019-03-31T11:50:41.125Z,10.23
2019-03-31T11:53:09.828Z,8.85
2019-03-31T11:55:38.474Z,9.93
2019-03-31T11:58:07.104Z,9.55
2019-03-31T12:00:37.743Z,8.03
2019-03-31T12:03:06.438Z,9.55
2019-03-31T12:05:35.063Z,8.25
2019-03-31T12:08:04.017Z,9.13
2019-03-31T12:10:32.690Z,8.43
2019-03-31T12:13:01.364Z,11.08
2019-03-31T12:15:30.098Z,11.33
2019-03-31T12:17:58.768Z,8.60
2019-03-31T12:20:27.429Z,12.78
2019-03-31T12:22:56.239Z,8.95
2019-03-31T12:25:24.967Z,8.48
2019-03-31T12:27:53.618Z,8.75
2019-03-31T12:30:28.832Z,9.28
2019-03-31T12:32:59.770Z,9.50
2019-03-31T12:35:28.353Z,9.58
2019-03-31T12:37:57.033Z,9.53
2019-03-31T12:40:33.037Z,7.30
2019-03-31T12:43:01.783Z,8.33
2019-03-31T12:45:30.459Z,11.25
2019-03-31T12:48:01.326Z,6.92
2019-03-31T12:50:29.744Z,6.80
2019-03-31T12:52:58.399Z,7.53
2019-03-31T12:55:27.058Z,4.85
2019-03-31T12:57:55.748Z,5.25
2019-03-31T13:00:26.086Z,7.28
2019-03-31T13:02:54.744Z,5.60
2019-03-31T13:05:23.421Z,5.58
2019-03-31T13:07:56.555Z,5.47
2019-03-31T13:10:22.509Z,6.35
2019-03-31T13:12:52.071Z,6.15
2019-03-31T13:15:20.905Z,5.67
2019-03-31T13:17:50.849Z,4.72
2019-03-31T13:20:19.537Z,3.98
2019-03-31T13:22:48.191Z,6.90
2019-03-31T13:25:16.855Z,5.50
2019-03-31T13:27:45.969Z,9.58
2019-03-31T13:30:14.936Z,17.05
2019-03-31T13:32:43.572Z,6.90
2019-03-31T13:35:12.288Z,7.75
2019-03-31T13:37:40.923Z,6.97
2019-03-31T13:40:10.074Z,8.73
2019-03-31T13:42:38.761Z,7.75
2019-03-31T13:45:11.143Z,7.72
2019-03-31T13:47:39.795Z,8.38
2019-03-31T13:50:12.038Z,7.67
2019-03-31T13:52:41.069Z,10.03
2019-03-31T13:55:10.336Z,8.73
2019-03-31T13:57:40.822Z,11.57
2019-03-31T14:00:11.572Z,9.93
2019-03-31T14:02:40.737Z,8.78
2019-03-31T14:05:09.469Z,8.65
2019-03-31T14:07:38.027Z,9.25
2019-03-31T14:10:08.052Z,7.92
2019-03-31T14:12:37.406Z,5.85
2019-03-31T14:15:18.964Z,11.83
2019-03-31T14:17:39.225Z,11.75
2019-03-31T14:20:08.809Z,6.58
2019-03-31T14:22:37.471Z,7.92
2019-03-31T14:25:07.010Z,13.08
2019-03-31T14:27:35.729Z,12.05
2019-03-31T14:30:06.978Z,10.72
2019-03-31T14:32:35.640Z,8.78
2019-03-31T14:35:05.688Z,7.35
2019-03-31T14:37:34.330Z,9.48
2019-03-31T14:40:03.058Z,9.90
2019-03-31T14:42:31.780Z,12.53
2019-03-31T14:45:00.502Z,9.63
2019-03-31T14:47:29.368Z,10.10
2019-03-31T14:49:59.587Z,12.28
2019-03-31T14:52:28.216Z,9.75
2019-03-31T14:54:57.107Z,10.50
2019-03-31T14:57:25.831Z,17.20
2019-03-31T14:59:54.394Z,9.80
2019-03-31T15:02:22.971Z,9.20
2019-03-31T15:04:52.086Z,10.72
2019-03-31T15:07:20.733Z,8.75
2019-03-31T15:09:49.307Z,9.90
2019-03-31T15:12:19.491Z,8.05
2019-03-31T15:14:48.159Z,10.90
2019-03-31T15:17:16.808Z,8.45
2019-03-31T15:19:46.897Z,8.35
2019-03-31T15:22:15.642Z,9.05
2019-03-31T15:24:44.214Z,8.73
2019-03-31T15:27:15.345Z,10.38
2019-03-31T15:29:45.073Z,9.08
2019-03-31T15:32:13.713Z,10.25
2019-03-31T15:34:42.331Z,7.15
2019-03-31T15:37:10.854Z,7.55
2019-03-31T15:39:39.486Z,9.68
2019-03-31T15:42:08.519Z,11.18
2019-03-31T15:44:37.309Z,12.13
2019-03-31T15:47:06.865Z,8.18
2019-03-31T15:49:35.553Z,9.25
2019-03-31T15:52:04.724Z,11.28
2019-03-31T15:54:33.381Z,9.13
2019-03-31T15:57:03.567Z,9.08
2019-03-31T15:59:33.219Z,7.92
2019-03-31T16:02:01.866Z,12.78
2019-03-31T16:04:30.492Z,14.10
2019-03-31T16:06:59.206Z,6.53
2019-03-31T16:09:30.891Z,7.60
2019-03-31T16:11:59.712Z,7.47
2019-03-31T16:14:29.923Z,13.15
2019-03-31T16:16:58.601Z,9.83
2019-03-31T16:19:27.291Z,12.15
2019-03-31T16:21:55.944Z,10.20
2019-03-31T16:24:26.245Z,9.28
2019-03-31T16:26:54.982Z,10.25
2019-03-31T16:29:23.721Z,9.15
2019-03-31T16:31:52.388Z,8.03
2019-03-31T16:34:21.053Z,8.38
2019-03-31T16:36:49.626Z,8.55
2019-03-31T16:39:18.298Z,9.13
2019-03-31T16:41:46.999Z,10.48
2019-03-31T16:44:15.652Z,17.05
2019-03-31T16:46:44.320Z,14.10
2019-03-31T16:49:14.310Z,15.28
2019-03-31T16:51:42.835Z,14.55
2019-03-31T16:54:11.489Z,16.20
2019-03-31T16:56:40.215Z,13.20
2019-03-31T16:59:08.790Z,15.65
2019-03-31T17:01:37.436Z,15.43
2019-03-31T17:04:06.092Z,16.15
2019-03-31T17:06:34.941Z,12.53
2019-03-31T17:09:05.164Z,11.95
2019-03-31T17:11:33.750Z,20.82
2019-03-31T17:14:02.789Z,17.17
2019-03-31T17:16:31.440Z,17.60
2019-03-31T17:19:00.178Z,16.23
2019-03-31T17:21:29.226Z,14.50
2019-03-31T17:23:57.890Z,13.45
2019-03-31T17:26:26.470Z,22.40
2019-03-31T17:28:55.162Z,12.10
2019-03-31T17:31:23.844Z,16.37
2019-03-31T17:33:52.430Z,23.90
2019-03-31T17:36:21.125Z,13.70
2019-03-31T17:38:49.776Z,16.85
2019-03-31T17:41:18.433Z,14.10
2019-03-31T17:43:47.058Z,15.25
2019-03-31T17:46:15.770Z,15.40
2019-03-31T17:48:44.425Z,12.47
2019-03-31T17:51:13.084Z,15.53
2019-03-31T17:53:41.709Z,14.90
2019-03-31T17:56:10.368Z,20.02
2019-03-31T17:58:39.766Z,26.45
2019-03-31T18:01:09.911Z,20.43
2019-03-31T18:03:38.622Z,20.90
2019-03-31T18:06:08.683Z,20.43
2019-03-31T18:08:37.445Z,19.90
2019-03-31T18:11:06.119Z,19.50
2019-03-31T18:13:34.767Z,16.40
2019-03-31T18:16:05.042Z,20.37
2019-03-31T18:18:33.550Z,21.35
2019-03-31T18:21:02.127Z,19.00
2019-03-31T18:23:31.036Z,18.62
2019-03-31T18:25:59.675Z,17.12
2019-03-31T18:28:28.337Z,20.50
2019-03-31T18:30:56.981Z,19.32
2019-03-31T18:33:25.676Z,18.48
2019-03-31T18:35:54.253Z,18.80
2019-03-31T18:38:22.885Z,17.52
2019-03-31T18:40:51.683Z,18.10
2019-03-31T18:43:20.342Z,17.52
2019-03-31T18:45:49.076Z,22.30
2019-03-31T18:48:17.746Z,16.62
2019-03-31T18:50:46.386Z,15.85
2019-03-31T18:53:22.650Z,16.60
2019-03-31T18:55:53.019Z,15.38
2019-03-31T18:58:23.310Z,13.60
2019-03-31T19:00:53.579Z,11.70
2019-03-31T19:03:26.282Z,13.13
2019-03-31T19:06:12.901Z,12.53
2019-03-31T19:08:45.947Z,13.35
2019-03-31T19:11:22.027Z,12.88
2019-03-31T19:14:08.699Z,14.73
2019-03-31T19:16:39.102Z,16.07
2019-03-31T19:19:27.358Z,16.80
2019-03-31T19:22:14.017Z,17.48
2019-03-31T19:24:56.497Z,15.58
2019-03-31T19:27:32.772Z,12.70
2019-03-31T19:30:05.403Z,13.75
2019-03-31T19:32:41.673Z,9.10
2019-03-31T19:35:14.662Z,12.05
2019-03-31T19:37:47.587Z,12.68
2019-03-31T19:40:34.567Z,9.23
2019-03-31T19:43:04.889Z,11.15
2019-03-31T19:45:51.657Z,7.22
2019-03-31T19:48:31.173Z,10.65
2019-03-31T19:51:10.384Z,10.13
2019-03-31T19:53:40.692Z,10.35
2019-03-31T19:56:10.971Z,13.18
2019-03-31T19:58:57.156Z,8.53
2019-03-31T20:01:39.288Z,6.70
2019-03-31T20:04:25.977Z,9.53
2019-03-31T20:06:56.259Z,13.00
2019-03-31T20:09:26.540Z,11.65
2019-03-31T20:12:08.920Z,8.78
2019-03-31T20:14:48.193Z,12.00
2019-03-31T20:17:21.295Z,10.50
2019-03-31T20:20:09.519Z,12.03
2019-03-31T20:22:54.810Z,8.63
2019-03-31T20:25:41.173Z,17.07
2019-03-31T20:28:11.362Z,13.22
2019-03-31T20:30:44.611Z,11.45
2019-03-31T20:33:17.924Z,10.08
2019-03-31T20:36:04.863Z,11.40
2019-03-31T20:38:55.545Z,14.70
2019-03-31T20:41:36.971Z,17.35
2019-03-31T20:44:05.666Z,20.62
2019-03-31T20:46:34.248Z,23.38
2019-03-31T20:49:02.903Z,23.05
2019-03-31T20:51:31.483Z,13.90
2019-03-31T20:54:00.077Z,19.37
2019-03-31T20:56:28.705Z,16.10
2019-03-31T20:58:57.351Z,14.33
2019-03-31T21:01:26.037Z,15.23
2019-03-31T21:03:54.682Z,14.95
2019-03-31T21:06:23.330Z,14.87
2019-03-31T21:08:51.972Z,18.17
2019-03-31T21:11:20.689Z,11.83
2019-03-31T21:13:49.328Z,11.70
2019-03-31T21:16:17.980Z,9.08
2019-03-31T21:18:46.660Z,7.17
2019-03-31T21:21:15.238Z,7.30
2019-03-31T21:23:43.871Z,7.65
2019-03-31T21:26:12.557Z,8.03
2019-03-31T21:28:41.189Z,8.93
2019-03-31T21:31:09.829Z,9.30
2019-03-31T21:33:38.356Z,9.23
2019-03-31T21:36:06.999Z,8.65
2019-03-31T21:38:35.635Z,8.35
2019-03-31T21:41:04.324Z,12.20
2019-03-31T21:43:35.014Z,13.40
2019-03-31T21:46:03.577Z,8.85
2019-03-31T21:48:32.262Z,10.23
2019-03-31T21:51:00.831Z,8.18
2019-03-31T21:53:29.399Z,9.28
2019-03-31T21:55:58.021Z,7.45
2019-03-31T21:58:26.652Z,9.78
2019-03-31T22:00:57.626Z,9.08
2019-03-31T22:03:26.333Z,8.58
2019-03-31T22:05:54.964Z,8.65
2019-03-31T22:08:23.557Z,11.25
2019-03-31T22:10:52.236Z,8.88
2019-03-31T22:13:20.953Z,9.48
2019-03-31T22:15:49.599Z,9.53
2019-03-31T22:18:18.353Z,9.88
2019-03-31T22:20:47.414Z,8.88
2019-03-31T22:23:16.442Z,7.58
2019-03-31T22:25:45.124Z,7.78
2019-03-31T22:28:15.235Z,10.75
2019-03-31T22:30:43.883Z,9.83
2019-03-31T22:33:12.582Z,7.87
2019-03-31T22:35:41.219Z,8.38
2019-03-31T22:38:09.857Z,7.45
2019-03-31T22:40:38.544Z,7.90
2019-03-31T22:43:08.004Z,5.80
2019-03-31T22:45:36.732Z,8.58
2019-03-31T22:48:05.380Z,7.75
2019-03-31T22:50:34.063Z,10.38
2019-03-31T22:53:02.696Z,8.33
2019-03-31T22:55:31.272Z,12.78
2019-03-31T22:57:59.926Z,8.60
2019-03-31T23:00:28.537Z,10.53
2019-03-31T23:02:57.253Z,7.62
2019-03-31T23:05:25.826Z,9.20
2019-03-31T23:07:54.516Z,8.73
2019-03-31T23:10:23.158Z,12.03
2019-03-31T23:12:51.655Z,11.03
2019-03-31T23:15:20.264Z,10.75
2019-03-31T23:17:48.972Z,9.85
2019-03-31T23:20:17.553Z,8.55
2019-03-31T23:22:46.446Z,8.05
2019-03-31T23:25:15.690Z,9.48
2019-03-31T23:27:44.183Z,9.70
2019-03-31T23:30:14.237Z,9.55
2019-03-31T23:32:42.869Z,8.88
2019-03-31T23:35:11.509Z,9.15
2019-03-31T23:37:40.138Z,11.97
2019-03-31T23:40:09.183Z,12.73
2019-03-31T23:42:37.654Z,10.45
2019-03-31T23:45:07.692Z,8.73
2019-03-31T23:47:36.355Z,10.10
2019-03-31T23:50:06.097Z,11.08
2019-03-31T23:52:34.786Z,10.53
2019-03-31T23:55:03.422Z,8.30
2019-03-31T23:57:44.036Z,12.55
